createdAt,value
2022-08-30T00:00:59.762Z,99.90
2022-08-30T00:03:27.526Z,99.90
2022-08-30T00:05:56.359Z,99.90
2022-08-30T00:08:23.421Z,99.90
2022-08-30T00:10:51.288Z,99.90
2022-08-30T00:13:18.753Z,99.90
2022-08-30T00:15:45.850Z,99.90
2022-08-30T00:18:12.781Z,99.90
2022-08-30T00:20:39.681Z,99.90
2022-08-30T00:23:06.614Z,99.90
2022-08-30T00:25:33.546Z,99.90
2022-08-30T00:28:00.457Z,99.90
2022-08-30T00:30:27.307Z,99.90
2022-08-30T00:32:54.190Z,99.90
2022-08-30T00:35:21.102Z,99.90
2022-08-30T00:37:48.544Z,99.90
2022-08-30T00:40:16.102Z,99.90
2022-08-30T00:42:43.777Z,99.90
2022-08-30T00:45:21.975Z,99.90
2022-08-30T00:47:48.797Z,99.90
2022-08-30T00:50:16.732Z,99.90
2022-08-30T00:52:45.407Z,99.90
2022-08-30T00:55:14.244Z,99.90
2022-08-30T00:57:45.031Z,99.90
2022-08-30T01:00:13.242Z,99.90
2022-08-30T01:02:40.138Z,99.90
2022-08-30T01:05:08.548Z,99.90
2022-08-30T01:07:35.448Z,99.90
2022-08-30T01:10:02.679Z,99.90
2022-08-30T01:12:30.132Z,99.90
2022-08-30T01:14:58.117Z,99.90
2022-08-30T01:17:25.669Z,99.90
2022-08-30T01:20:00.824Z,99.90
2022-08-30T01:22:45.010Z,99.90
2022-08-30T01:25:15.020Z,99.90
2022-08-30T01:27:44.511Z,99.90
2022-08-30T01:30:11.896Z,99.90
2022-08-30T01:32:44.640Z,99.90
2022-08-30T01:35:12.720Z,99.90
2022-08-30T01:37:39.576Z,99.90
2022-08-30T01:40:07.406Z,99.90
2022-08-30T01:42:34.903Z,99.90
2022-08-30T01:45:01.768Z,99.90
2022-08-30T01:47:28.602Z,99.90
2022-08-30T01:54:23.069Z,99.90
2022-08-30T01:56:54.224Z,99.90
2022-08-30T01:59:21.066Z,99.90
2022-08-30T02:01:47.879Z,99.90
2022-08-30T02:04:14.904Z,99.90
2022-08-30T02:06:41.990Z,99.90
2022-08-30T02:09:08.787Z,99.90
2022-08-30T02:11:35.722Z,99.90
2022-08-30T02:14:02.683Z,99.90
2022-08-30T02:16:29.668Z,99.90
2022-08-30T02:18:57.264Z,99.90
2022-08-30T02:21:24.828Z,99.90
2022-08-30T02:23:52.081Z,99.90
2022-08-30T02:26:19.196Z,99.90
2022-08-30T02:28:49.629Z,99.90
2022-08-30T02:31:20.448Z,99.90
2022-08-30T02:33:48.809Z,99.90
2022-08-30T02:36:15.693Z,99.90
2022-08-30T02:38:42.559Z,99.90
2022-08-30T02:41:09.369Z,99.90
2022-08-30T02:43:36.176Z,99.90
2022-08-30T02:46:03.071Z,99.90
2022-08-30T02:48:29.903Z,99.90
2022-08-30T02:50:56.904Z,99.90
2022-08-30T02:53:23.861Z,99.90
2022-08-30T02:55:53.054Z,99.90
2022-08-30T02:58:19.866Z,99.90
2022-08-30T03:00:46.725Z,99.90
2022-08-30T03:03:13.631Z,99.90
2022-08-30T03:05:40.643Z,99.90
2022-08-30T03:08:09.348Z,99.90
2022-08-30T03:10:36.367Z,99.90
2022-08-30T03:13:03.505Z,99.90
2022-08-30T03:15:30.334Z,99.90
2022-08-30T03:17:57.174Z,99.90
2022-08-30T03:20:24.522Z,99.90
2022-08-30T03:22:51.516Z,99.90
2022-08-30T03:29:51.011Z,99.90
2022-08-30T03:32:18.119Z,99.90
2022-08-30T03:34:44.982Z,99.90
2022-08-30T03:37:11.880Z,99.90
2022-08-30T03:39:38.826Z,99.90
2022-08-30T03:42:05.828Z,99.90
2022-08-30T03:44:32.725Z,99.90
2022-08-30T03:46:59.555Z,99.90
2022-08-30T03:49:26.378Z,99.90
2022-08-30T03:51:53.173Z,99.90
2022-08-30T03:54:20.055Z,99.90
2022-08-30T03:56:46.881Z,99.90
2022-08-30T03:59:13.881Z,99.90
2022-08-30T04:01:42.073Z,99.90
2022-08-30T04:04:09.134Z,99.90
2022-08-30T04:06:35.936Z,99.90
2022-08-30T04:09:02.796Z,99.90
2022-08-30T04:11:29.582Z,99.90
2022-08-30T04:13:56.856Z,99.90
2022-08-30T04:16:24.341Z,99.90
2022-08-30T04:18:51.180Z,99.90
2022-08-30T04:21:18.215Z,99.90
2022-08-30T04:23:45.181Z,99.90
2022-08-30T04:26:12.023Z,99.90
2022-08-30T04:28:38.821Z,99.90
2022-08-30T04:31:13.327Z,99.90
2022-08-30T04:33:42.213Z,99.90
2022-08-30T04:36:09.404Z,99.90
2022-08-30T04:38:36.782Z,99.90
2022-08-30T04:41:06.225Z,99.90
2022-08-30T04:43:33.426Z,99.90
2022-08-30T04:46:00.425Z,99.90
2022-08-30T04:48:27.261Z,99.90
2022-08-30T04:50:54.231Z,99.90
2022-08-30T04:53:21.081Z,99.90
2022-08-30T04:55:47.902Z,99.90
2022-08-30T04:58:15.051Z,99.90
2022-08-30T05:00:43.808Z,99.90
2022-08-30T05:03:10.726Z,99.90
2022-08-30T05:05:40.317Z,99.90
2022-08-30T05:08:08.511Z,99.90
2022-08-30T05:10:39.165Z,99.90
2022-08-30T05:13:06.019Z,99.90
2022-08-30T05:15:33.090Z,99.90
2022-08-30T05:18:00.136Z,99.90
2022-08-30T05:20:27.114Z,99.90
2022-08-30T05:22:54.270Z,99.90
2022-08-30T05:25:27.993Z,99.90
2022-08-30T05:27:55.025Z,99.90
2022-08-30T05:30:23.624Z,99.90
2022-08-30T05:32:53.716Z,99.90
2022-08-30T05:35:25.802Z,99.90
2022-08-30T05:37:53.961Z,99.90
2022-08-30T05:40:22.138Z,99.90
2022-08-30T05:42:49.684Z,99.90
2022-08-30T05:45:17.308Z,99.90
2022-08-30T05:47:44.587Z,99.90
2022-08-30T05:50:11.536Z,99.90
2022-08-30T05:52:39.365Z,99.90
2022-08-30T05:55:07.804Z,99.90
2022-08-30T05:57:35.819Z,99.90
2022-08-30T06:00:06.544Z,99.90
2022-08-30T06:02:39.707Z,99.90
2022-08-30T06:05:07.096Z,99.90
2022-08-30T06:07:34.842Z,99.90
2022-08-30T06:10:02.168Z,99.90
2022-08-30T06:12:29.187Z,99.90
2022-08-30T06:14:56.203Z,99.90
2022-08-30T06:17:23.093Z,99.90
2022-08-30T06:19:50.055Z,99.90
2022-08-30T06:22:16.977Z,99.90
2022-08-30T06:24:56.936Z,99.90
2022-08-30T06:27:24.726Z,99.90
2022-08-30T06:29:52.538Z,99.90
2022-08-30T06:32:19.654Z,99.90
2022-08-30T06:34:46.776Z,99.90
2022-08-30T06:37:21.994Z,99.90
2022-08-30T06:40:00.500Z,99.90
2022-08-30T06:42:32.156Z,99.90
2022-08-30T06:45:02.190Z,99.90
2022-08-30T06:47:42.758Z,99.90
2022-08-30T06:50:22.645Z,99.90
2022-08-30T06:52:49.609Z,99.90
2022-08-30T06:55:16.911Z,99.90
2022-08-30T06:57:44.237Z,99.90
2022-08-30T07:00:13.555Z,99.90
2022-08-30T07:02:40.796Z,99.90
2022-08-30T07:05:08.354Z,99.90
2022-08-30T07:07:35.707Z,99.90
2022-08-30T07:10:07.170Z,99.90
2022-08-30T07:12:36.118Z,99.90
2022-08-30T07:15:04.757Z,99.90
2022-08-30T07:17:50.127Z,99.90
2022-08-30T07:20:18.362Z,99.90
2022-08-30T07:22:46.455Z,99.90
2022-08-30T07:25:13.861Z,99.90
2022-08-30T07:27:40.943Z,99.90
2022-08-30T07:30:08.369Z,99.90
2022-08-30T07:32:38.499Z,99.90
2022-08-30T07:35:05.907Z,99.90
2022-08-30T07:37:32.787Z,99.90
2022-08-30T07:39:59.737Z,99.90
2022-08-30T07:42:26.637Z,99.90
2022-08-30T07:44:56.605Z,99.90
2022-08-30T07:47:23.934Z,99.90
2022-08-30T07:49:51.014Z,99.90
2022-08-30T07:52:17.978Z,99.90
2022-08-30T07:54:44.881Z,99.90
2022-08-30T07:57:12.615Z,99.90
2022-08-30T07:59:43.272Z,99.90
2022-08-30T08:02:10.164Z,99.90
2022-08-30T08:04:37.337Z,99.90
2022-08-30T08:07:04.216Z,99.90
2022-08-30T08:09:31.107Z,99.90
2022-08-30T08:11:57.995Z,99.90
2022-08-30T08:14:24.953Z,99.90
2022-08-30T08:16:52.028Z,99.90
2022-08-30T08:19:19.674Z,99.90
2022-08-30T08:21:46.539Z,99.90
2022-08-30T08:24:13.627Z,99.90
2022-08-30T08:26:41.019Z,99.90
2022-08-30T08:29:12.251Z,99.90
2022-08-30T08:31:41.442Z,99.90
2022-08-30T08:34:08.518Z,99.90
2022-08-30T08:36:35.731Z,99.90
2022-08-30T08:39:03.455Z,99.60
2022-08-30T08:41:39.676Z,98.60
2022-08-30T08:44:09.400Z,99.00
2022-08-30T08:47:03.849Z,99.10
2022-08-30T08:49:30.707Z,99.30
2022-08-30T08:52:16.878Z,99.30
2022-08-30T08:54:52.782Z,99.40
2022-08-30T08:57:24.532Z,98.40
2022-08-30T08:59:54.524Z,97.60
2022-08-30T09:02:26.682Z,96.80
2022-08-30T09:04:56.330Z,96.30
2022-08-30T09:07:30.110Z,95.50
2022-08-30T09:09:57.901Z,94.10
2022-08-30T09:12:25.139Z,93.50
2022-08-30T09:14:55.637Z,93.50
2022-08-30T09:17:26.106Z,94.20
2022-08-30T09:19:53.128Z,94.40
2022-08-30T09:22:39.728Z,94.10
2022-08-30T09:25:24.025Z,94.30
2022-08-30T09:27:52.212Z,93.60
2022-08-30T09:30:25.338Z,93.00
2022-08-30T09:33:05.441Z,92.30
2022-08-30T09:35:43.869Z,92.50
2022-08-30T09:38:13.104Z,91.10
2022-08-30T09:40:43.336Z,90.30
2022-08-30T09:43:12.012Z,87.60
2022-08-30T09:45:44.188Z,86.10
2022-08-30T09:48:37.273Z,85.20
2022-08-30T09:51:10.442Z,84.70
2022-08-30T09:54:16.749Z,83.90
2022-08-30T09:57:12.626Z,83.00
2022-08-30T10:00:07.101Z,80.80
2022-08-30T10:02:36.994Z,79.00
2022-08-30T10:05:34.265Z,78.30
2022-08-30T10:08:20.026Z,77.80
2022-08-30T10:10:56.288Z,77.30
2022-08-30T10:13:36.137Z,75.00
2022-08-30T10:16:11.950Z,73.60
2022-08-30T10:19:07.685Z,73.70
2022-08-30T10:21:37.683Z,73.50
2022-08-30T10:24:10.153Z,73.20
2022-08-30T10:26:53.026Z,72.70
2022-08-30T10:29:24.171Z,73.30
2022-08-30T10:32:12.913Z,73.40
2022-08-30T10:34:56.767Z,72.30
2022-08-30T10:37:26.095Z,71.30
2022-08-30T10:40:00.744Z,71.60
2022-08-30T10:42:33.823Z,71.70
2022-08-30T10:45:05.527Z,70.70
2022-08-30T10:47:35.162Z,69.70
2022-08-30T10:50:11.244Z,69.60
2022-08-30T10:52:47.534Z,70.80
2022-08-30T10:55:36.452Z,70.00
2022-08-30T10:58:04.633Z,70.70
2022-08-30T11:00:37.737Z,69.50
2022-08-30T11:03:43.246Z,69.30
2022-08-30T11:06:32.459Z,69.30
2022-08-30T11:09:29.894Z,68.90
2022-08-30T11:12:31.111Z,68.90
2022-08-30T11:14:59.320Z,67.60
2022-08-30T11:17:28.253Z,66.40
2022-08-30T11:19:57.366Z,66.40
2022-08-30T11:22:30.068Z,66.50
2022-08-30T11:25:14.758Z,65.60
2022-08-30T11:27:56.505Z,65.40
2022-08-30T11:30:27.527Z,65.00
2022-08-30T11:33:09.845Z,64.60
2022-08-30T11:35:37.143Z,65.40
2022-08-30T11:38:26.040Z,65.10
2022-08-30T11:45:26.773Z,65.50
2022-08-30T11:47:56.719Z,64.40
2022-08-30T11:50:27.414Z,64.20
2022-08-30T11:53:01.860Z,64.30
2022-08-30T11:55:47.638Z,63.10
2022-08-30T11:58:37.867Z,62.50
2022-08-30T12:01:41.899Z,62.70
2022-08-30T12:04:15.432Z,62.50
2022-08-30T12:06:43.077Z,61.90
2022-08-30T12:09:35.758Z,62.50
2022-08-30T12:12:12.779Z,61.70
2022-08-30T12:14:54.720Z,61.90
2022-08-30T12:18:20.306Z,61.00
2022-08-30T12:20:48.609Z,60.20
2022-08-30T12:23:23.132Z,59.70
2022-08-30T12:25:50.194Z,59.40
2022-08-30T12:28:22.524Z,59.90
2022-08-30T12:30:49.536Z,59.90
2022-08-30T12:33:28.881Z,60.40
2022-08-30T12:35:59.274Z,59.30
2022-08-30T12:38:27.973Z,59.10
2022-08-30T12:40:57.951Z,59.70
2022-08-30T12:43:40.888Z,59.00
2022-08-30T12:46:11.542Z,58.50
2022-08-30T12:48:39.315Z,58.40
2022-08-30T12:55:33.919Z,58.20
2022-08-30T12:58:02.205Z,58.60
2022-08-30T13:00:42.960Z,59.10
2022-08-30T13:03:30.309Z,58.40
2022-08-30T13:05:57.746Z,57.80
2022-08-30T13:08:25.943Z,57.80
2022-08-30T13:11:08.249Z,57.80
2022-08-30T13:13:41.344Z,57.30
2022-08-30T13:16:20.863Z,57.50
2022-08-30T13:18:49.664Z,57.30
2022-08-30T13:21:34.025Z,56.50
2022-08-30T13:24:05.581Z,56.70
2022-08-30T13:26:34.196Z,56.40
2022-08-30T13:29:05.214Z,56.20
2022-08-30T13:31:37.550Z,55.60
2022-08-30T13:34:05.187Z,55.50
2022-08-30T13:36:34.651Z,55.20
2022-08-30T13:39:02.474Z,54.60
2022-08-30T13:41:34.567Z,54.60
2022-08-30T13:44:13.290Z,55.20
2022-08-30T13:46:42.687Z,54.20
2022-08-30T13:52:23.778Z,53.00
2022-08-30T13:54:54.663Z,52.30
2022-08-30T14:00:14.778Z,51.60
2022-08-30T14:02:46.666Z,51.70
2022-08-30T14:05:46.879Z,52.10
2022-08-30T14:08:05.057Z,50.80
2022-08-30T14:10:33.046Z,50.00
2022-08-30T14:13:08.525Z,50.40
2022-08-30T14:15:39.317Z,49.80
2022-08-30T14:18:06.985Z,49.30
2022-08-30T14:20:38.832Z,48.80
2022-08-30T14:23:09.926Z,48.30
2022-08-30T14:25:37.734Z,48.20
2022-08-30T14:28:08.269Z,47.70
2022-08-30T14:30:36.850Z,48.00
2022-08-30T14:33:03.992Z,48.90
2022-08-30T14:35:31.235Z,49.00
2022-08-30T14:37:58.589Z,49.00
2022-08-30T14:40:26.050Z,49.20
2022-08-30T14:42:53.003Z,49.50
2022-08-30T14:45:19.944Z,49.30
2022-08-30T14:47:47.184Z,49.70
2022-08-30T14:50:14.615Z,50.10
2022-08-30T14:52:41.515Z,50.70
2022-08-30T14:55:12.746Z,51.10
2022-08-30T14:57:40.606Z,51.50
2022-08-30T15:00:10.388Z,52.00
2022-08-30T15:02:40.798Z,51.60
2022-08-30T15:05:08.392Z,51.70
2022-08-30T15:07:36.031Z,52.00
2022-08-30T15:10:05.801Z,52.20
2022-08-30T15:12:32.943Z,52.70
2022-08-30T15:15:00.818Z,52.70
2022-08-30T15:17:28.594Z,53.20
2022-08-30T15:19:55.496Z,55.70
2022-08-30T15:22:22.625Z,59.60
2022-08-30T15:24:50.835Z,62.30
2022-08-30T15:27:18.020Z,64.80
2022-08-30T15:29:45.138Z,66.30
2022-08-30T15:32:12.053Z,67.20
2022-08-30T15:34:39.115Z,68.60
2022-08-30T15:37:06.260Z,69.50
2022-08-30T15:39:34.853Z,70.60
2022-08-30T15:42:01.984Z,72.60
2022-08-30T15:44:31.107Z,75.40
2022-08-30T15:46:58.251Z,78.10
2022-08-30T15:49:25.315Z,81.50
2022-08-30T15:51:53.963Z,82.90
2022-08-30T15:54:22.090Z,84.20
2022-08-30T15:56:48.955Z,85.20
2022-08-30T15:59:18.462Z,85.80
2022-08-30T16:01:47.713Z,86.60
2022-08-30T16:04:18.410Z,87.90
2022-08-30T16:06:45.755Z,89.60
2022-08-30T16:09:12.667Z,91.10
2022-08-30T16:11:39.634Z,92.70
2022-08-30T16:14:06.793Z,93.50
2022-08-30T16:16:37.593Z,95.50
2022-08-30T16:19:04.931Z,96.10
2022-08-30T16:21:32.606Z,96.90
2022-08-30T16:24:00.934Z,97.90
2022-08-30T16:26:28.804Z,98.40
2022-08-30T16:32:49.441Z,99.90
2022-08-30T16:35:16.319Z,99.90
2022-08-30T16:37:43.134Z,99.90
2022-08-30T16:40:11.191Z,99.90
2022-08-30T16:42:38.258Z,99.90
2022-08-30T16:45:10.317Z,99.90
2022-08-30T16:47:37.985Z,99.90
2022-08-30T16:50:05.710Z,99.90
2022-08-30T16:52:32.623Z,99.90
2022-08-30T16:55:01.021Z,99.90
2022-08-30T16:57:28.659Z,99.90
2022-08-30T16:59:55.650Z,99.90
2022-08-30T17:02:23.985Z,99.90
2022-08-30T17:04:53.222Z,99.90
2022-08-30T17:07:22.413Z,99.90
2022-08-30T17:09:49.853Z,99.90
2022-08-30T17:12:16.797Z,99.90
2022-08-30T17:14:43.811Z,99.90
2022-08-30T17:17:10.752Z,99.90
2022-08-30T17:19:42.246Z,99.90
2022-08-30T17:22:13.031Z,99.90
2022-08-30T17:24:40.146Z,99.90
2022-08-30T17:27:07.355Z,99.90
2022-08-30T17:29:34.624Z,99.90
2022-08-30T17:32:03.743Z,93.00
2022-08-30T17:34:31.909Z,89.10
2022-08-30T17:37:00.122Z,83.10
2022-08-30T17:39:27.411Z,77.00
2022-08-30T17:41:55.066Z,72.30
2022-08-30T17:44:25.511Z,70.70
2022-08-30T17:46:53.264Z,68.50
2022-08-30T17:49:21.228Z,67.50
2022-08-30T17:51:56.350Z,67.40
2022-08-30T17:58:52.885Z,73.60
2022-08-30T18:01:20.056Z,79.00
2022-08-30T18:03:48.705Z,81.30
2022-08-30T18:06:15.863Z,83.00
2022-08-30T18:08:43.422Z,85.00
2022-08-30T18:11:10.283Z,89.50
2022-08-30T18:13:37.135Z,90.80
2022-08-30T18:16:04.368Z,92.00
2022-08-30T18:18:32.358Z,92.70
2022-08-30T18:20:59.218Z,93.00
2022-08-30T18:23:27.169Z,94.50
2022-08-30T18:25:58.691Z,96.40
2022-08-30T18:28:26.074Z,97.70
2022-08-30T18:30:53.723Z,98.80
2022-08-30T18:33:20.598Z,99.40
2022-08-30T18:35:48.744Z,99.90
2022-08-30T18:38:15.586Z,99.90
2022-08-30T18:40:42.557Z,99.90
2022-08-30T18:43:10.607Z,99.90
2022-08-30T18:45:38.090Z,99.90
2022-08-30T18:48:05.611Z,99.90
2022-08-30T18:50:32.884Z,99.90
2022-08-30T18:53:00.189Z,99.90
2022-08-30T18:55:27.203Z,99.90
2022-08-30T18:57:54.196Z,99.90
2022-08-30T19:00:21.891Z,99.90
2022-08-30T19:02:48.717Z,99.90
2022-08-30T19:05:16.273Z,99.90
2022-08-30T19:07:44.170Z,99.90
2022-08-30T19:10:12.423Z,99.90
2022-08-30T19:12:39.767Z,99.90
2022-08-30T19:15:10.880Z,99.90
2022-08-30T19:17:39.349Z,99.90
2022-08-30T19:20:08.409Z,99.90
2022-08-30T19:25:24.182Z,99.90
2022-08-30T19:27:51.525Z,99.90
2022-08-30T19:30:24.117Z,99.90
2022-08-30T19:32:55.737Z,99.90
2022-08-30T19:35:22.675Z,99.90
2022-08-30T19:37:49.524Z,99.90
2022-08-30T19:40:17.233Z,99.90
2022-08-30T19:42:46.165Z,99.90
2022-08-30T19:45:14.752Z,99.90
2022-08-30T19:47:41.609Z,99.90
2022-08-30T19:50:08.713Z,99.90
2022-08-30T19:52:36.467Z,99.90
2022-08-30T19:55:04.615Z,99.90
2022-08-30T19:57:31.611Z,99.90
2022-08-30T19:59:59.053Z,99.90
2022-08-30T20:02:26.243Z,99.90
2022-08-30T20:04:54.187Z,99.90
2022-08-30T20:07:25.234Z,99.90
2022-08-30T20:09:54.338Z,99.90
2022-08-30T20:12:21.165Z,99.90
2022-08-30T20:14:48.181Z,99.90
2022-08-30T20:17:15.646Z,99.90
2022-08-30T20:19:42.567Z,99.90
2022-08-30T20:22:09.441Z,99.90
2022-08-30T20:24:33.319Z,99.90
2022-08-30T20:27:08.500Z,99.90
2022-08-30T20:29:35.411Z,99.90
2022-08-30T20:32:03.339Z,99.90
2022-08-30T20:34:30.233Z,99.90
2022-08-30T20:36:57.271Z,99.90
2022-08-30T20:39:24.711Z,99.90
2022-08-30T20:41:51.571Z,99.90
2022-08-30T20:44:18.598Z,99.90
2022-08-30T20:46:46.862Z,99.90
2022-08-30T20:49:13.916Z,99.90
2022-08-30T20:51:40.920Z,99.90
2022-08-30T20:54:07.930Z,99.90
2022-08-30T20:56:35.165Z,99.90
2022-08-30T20:59:03.591Z,99.90
2022-08-30T21:01:35.631Z,99.90
2022-08-30T21:04:05.539Z,99.90
2022-08-30T21:06:37.369Z,99.90
2022-08-30T21:09:07.947Z,99.90
2022-08-30T21:11:35.237Z,99.90
2022-08-30T21:14:02.218Z,99.90
2022-08-30T21:16:30.191Z,99.90
2022-08-30T21:18:57.127Z,99.90
2022-08-30T21:21:25.527Z,99.90
2022-08-30T21:23:53.171Z,99.90
2022-08-30T21:26:20.191Z,99.90
2022-08-30T21:28:48.292Z,99.90
2022-08-30T21:31:17.297Z,99.90
2022-08-30T21:33:44.274Z,99.90
2022-08-30T21:36:29.589Z,99.90
2022-08-30T21:39:00.838Z,99.90
2022-08-30T21:41:28.343Z,99.90
2022-08-30T21:43:57.797Z,99.90
2022-08-30T21:46:25.729Z,99.90
2022-08-30T21:48:52.750Z,99.90
2022-08-30T21:51:19.720Z,99.90
2022-08-30T21:53:46.566Z,99.90
2022-08-30T21:56:21.265Z,99.90
2022-08-30T21:58:48.665Z,99.90
2022-08-30T22:01:18.456Z,99.90
2022-08-30T22:03:45.498Z,99.90
2022-08-30T22:06:12.765Z,99.90
2022-08-30T22:08:41.332Z,99.90
2022-08-30T22:11:12.332Z,99.90
2022-08-30T22:13:40.216Z,99.90
2022-08-30T22:16:07.573Z,99.90
2022-08-30T22:18:34.441Z,99.90
2022-08-30T22:21:02.496Z,99.90
2022-08-30T22:23:30.988Z,99.90
2022-08-30T22:25:58.815Z,99.90
2022-08-30T22:28:26.000Z,99.90
2022-08-30T22:30:53.505Z,99.90
2022-08-30T22:33:20.318Z,99.90
2022-08-30T22:35:47.236Z,99.90
2022-08-30T22:38:14.620Z,99.90
2022-08-30T22:40:48.478Z,99.90
2022-08-30T22:43:15.946Z,99.90
2022-08-30T22:45:42.854Z,99.90
2022-08-30T22:48:09.994Z,99.90
2022-08-30T22:50:37.010Z,99.90
2022-08-30T22:53:04.099Z,99.90
2022-08-30T22:55:30.950Z,99.90
2022-08-30T22:57:57.802Z,99.90
2022-08-30T23:00:24.766Z,99.90
2022-08-30T23:02:52.762Z,99.90
2022-08-30T23:05:21.174Z,99.90
2022-08-30T23:07:48.208Z,99.90
2022-08-30T23:10:15.085Z,99.90
2022-08-30T23:12:41.988Z,99.90
2022-08-30T23:15:12.452Z,99.90
2022-08-30T23:17:39.912Z,99.90
2022-08-30T23:20:07.451Z,99.90
2022-08-30T23:22:34.277Z,99.90
2022-08-30T23:25:19.703Z,99.90
2022-08-30T23:28:05.662Z,99.90
2022-08-30T23:30:51.064Z,99.90
2022-08-30T23:33:36.344Z,99.90
2022-08-30T23:36:26.858Z,99.90
2022-08-30T23:39:12.265Z,99.90
2022-08-30T23:41:57.626Z,99.90
2022-08-30T23:44:43.100Z,99.90
2022-08-30T23:47:28.460Z,99.90
2022-08-30T23:50:17.302Z,99.90
2022-08-30T23:53:02.644Z,99.90
2022-08-30T23:55:47.902Z,99.90
2022-08-30T23:58:33.432Z,99.90
